^^
Grace C. Lehan Memorial Weather Station Historical Data
Daily Summary for April 7, 2021 Units:  Metric    English   Both
Daily Weekly Monthly Yearly
  High: Low: Average:
Temperature: 19.6 °C 16.1 °C 17.2 °C
Dew Point: 5.7 °C 3.8 °C 4.6 °C
Humidity: 48% 37% 44%
Wind Speed: 5.1km/h 0km/h 0.6km/h
Wind Gust: 9.7km/h - -
Wind- - SE
Pressure: 1012.8 hPa 1010.4 hPa -
Precipitation: 0 mm    
 
 
Tabular Data for April 7, 2021
Time Temperature Dew Point Pressure Wind Wind Speed Wind Gust Humidity Rainfall Rate (Hourly) solar
11:00 19.6 °C 4.9 °C 1012.8 hPa ENE 1.6 km/h 9.7 km/h 38% 0 mm 866 W/m2
11:30 19.3 °C 4.2 °C 1012.1 hPa Calm   9.7 km/h 37% 0 mm 896 W/m2
12:04 18.6 °C 4 °C 1012.1 hPa NNE 5.1 km/h 9.7 km/h 37.9% 0 mm 896 W/m2
12:09 18.5 °C 3.9 °C 1011.7 hPa NE 2.4 km/h 9.7 km/h 38.1% 0 mm 315 W/m2
12:14 18.3 °C 4.1 °C 1011.7 hPa East 0.8 km/h 9.7 km/h 38.8% 0 mm 301 W/m2
12:19 18.2 °C 4.2 °C 1011.7 hPa Calm   9.7 km/h 39.5% 0 mm 278 W/m2
12:24 18.2 °C 4 °C 1011.7 hPa SE 0.3 km/h 9.7 km/h 39% 0 mm 225 W/m2
12:29 18 °C 3.8 °C 1011.7 hPa SSE 0.3 km/h 9.7 km/h 38.9% 0 mm 202 W/m2
12:34 17.9 °C 4.3 °C 1011.7 hPa South 0.2 km/h 9.7 km/h 40.7% 0 mm 190 W/m2
12:39 17.8 °C 4.1 °C 1011.7 hPa Calm   4.8 km/h 40.3% 0 mm 204 W/m2
12:44 17.7 °C 4.1 °C 1011.7 hPa South 0.2 km/h 4.8 km/h 40.5% 0 mm 294 W/m2
12:49 17.6 °C 4.3 °C 1011.7 hPa South 0.2 km/h 4.8 km/h 41.5% 0 mm 348 W/m2
12:54 17.7 °C 4.8 °C 1011.4 hPa NE 1.1 km/h 4.8 km/h 42.6% 0 mm 378 W/m2
12:59 17.8 °C 4.4 °C 1011.4 hPa ENE 0.2 km/h 4.8 km/h 41% 0 mm 459 W/m2
13:04 17.9 °C 4.3 °C 1011.4 hPa ENE 0.2 km/h 4.8 km/h 40.4% 0 mm 496 W/m2
13:09 18 °C 4.7 °C 1011.4 hPa East 1.4 km/h 6.4 km/h 41.5% 0 mm 352 W/m2
13:14 18 °C 4.6 °C 1011.4 hPa East 0.8 km/h 6.4 km/h 40.9% 0 mm 234 W/m2
13:19 17.9 °C 4.6 °C 1011.4 hPa Calm   6.4 km/h 41.3% 0 mm 149 W/m2
13:24 17.7 °C 4.4 °C 1011.4 hPa ESE 1.9 km/h 6.4 km/h 41.5% 0 mm 120 W/m2
13:29 17.3 °C 4.7 °C 1011.4 hPa ESE 1.9 km/h 8 km/h 43.2% 0 mm 88 W/m2
13:34 16.9 °C 4.9 °C 1011.4 hPa SE 0.8 km/h 8 km/h 45.1% 0 mm 67 W/m2
13:39 16.6 °C 4.9 °C 1011.4 hPa SE 1 km/h 6.4 km/h 45.7% 0 mm 69 W/m2
13:44 16.4 °C 4.7 °C 1011.4 hPa SSE 0.8 km/h 8 km/h 45.7% 0 mm 72 W/m2
13:49 16.3 °C 4.8 °C 1011.4 hPa South 1 km/h 8 km/h 46.5% 0 mm 76 W/m2
13:54 16.2 °C 4.8 °C 1011.4 hPa South 0.6 km/h 8 km/h 46.8% 0 mm 88 W/m2
13:59 16.1 °C 4.8 °C 1011.4 hPa Calm   8 km/h 47% 0 mm 97 W/m2
14:04 16.1 °C 4.9 °C 1011.1 hPa South 0.5 km/h 8 km/h 47.4% 0 mm 107 W/m2
14:09 16.1 °C 4.7 °C 1011.1 hPa South 0.3 km/h 4.8 km/h 46.6% 0 mm 109 W/m2
14:14 16.2 °C 4.7 °C 1011.1 hPa Calm   4.8 km/h 46.4% 0 mm 105 W/m2
14:19 16.2 °C 4.6 °C 1011.1 hPa SSE 0.3 km/h 4.8 km/h 46.1% 0 mm 104 W/m2
14:24 16.2 °C 4.3 °C 1011.1 hPa Calm   4.8 km/h 45.4% 0 mm 107 W/m2
14:29 16.2 °C 4.7 °C 1011.1 hPa Calm   4.8 km/h 46.3% 0 mm 113 W/m2
14:34 16.2 °C 4.8 °C 1011.1 hPa SSE 0.2 km/h 4.8 km/h 46.8% 0 mm 113 W/m2
14:39 16.2 °C 4.7 °C 1010.7 hPa SSE 0.2 km/h 3.2 km/h 46.2% 0 mm 120 W/m2
14:44 16.3 °C 4.8 °C 1010.7 hPa SSE 0.3 km/h 4.8 km/h 46.5% 0 mm 142 W/m2
14:49 16.3 °C 4.7 °C 1010.7 hPa Calm   4.8 km/h 46% 0 mm 171 W/m2
14:54 16.3 °C 4.6 °C 1010.7 hPa Calm   4.8 km/h 45.6% 0 mm 185 W/m2
14:59 16.4 °C 4.8 °C 1010.7 hPa Calm   4.8 km/h 46% 0 mm 190 W/m2
15:04 16.5 °C 4.7 °C 1010.7 hPa Calm   4.8 km/h 45.5% 0 mm 195 W/m2
15:09 16.6 °C 5.1 °C 1010.4 hPa Calm   3.2 km/h 46.3% 0 mm 199 W/m2
15:14 16.7 °C 5.2 °C 1010.4 hPa Calm   3.2 km/h 46.4% 0 mm 183 W/m2
15:19 16.8 °C 5.7 °C 1010.4 hPa SSW 0.5 km/h 4.8 km/h 48% 0 mm 155 W/m2
15:23 16.8 °C 5.7 °C 1010.4 hPa South 1.8 km/h 6.4 km/h 48% 0 mm 178 W/m2
Hartford County Weather
Compliments of Weather Underground - 2 mb